Etusivu
METAR-TAF:

METAR-TAF

Lentoasemat :

Rønne, Tanska

Leveyspiiri: 55-04N, Pituuspiiri: 014-45E, korkeus merenpinnasta: 16 m

Tämänhetkinen sää

Tämä raportti tehtiin 40 minuuttia sitten, kello 09.20 UTC
Tuuli 4 kn etelästä/lounaasta, vaihdellen etelän ja lännen/lounaan välillä
Lämpötila 8°C
Kosteus 81%
Ilmanpaine 1017 hPa
Näkyvyys 10 km tai enemmän

METAR: EKRN 170920Z AUTO 21004KT 170V240 9999 NCD 08/05 Q1017

Aika: 11:00 (10:00 UTC)

Sääennuste

Tämä raportti tehtiin 1 tunti ja 39 minuuttia sitten, kello 08.21 UTC
Ennuste voimassa 17. päivästä klo 09 UTC - 17. päivään klo 18 UTC
Tuuli 10 kn etelästä/lounaasta
Näkyvyys 10 km tai enemmän
ei pilviä alle 1500 m:ssä eikä cumulonimbus-pilviä
Tulossa
17. päivästä klo 11 UTC - 17. päivään klo 14 UTC
Tuuli 12 kn idästä

TAF: EKRN 170821Z 1709/1718 20010KT CAVOK BECMG 1711/1714 08012KT

Säähavainnot ja -ennusteet yli 4000 lentoasemalta (METAR- ja TAF-raportit).

Käytössä olevat sääasemat on merkitty karttaan keltaisilla ja punaisilla pisteillä.

Aseta hiiri pisteen päälle nähdäksesi sääaseman nimen.

Klikkaa sitten nähdäksesi säähavainnot ja -ennusteet.

Kartan vaihtaminen: klikkaa mustalla rastilla varustettuja vihreitä pisteitä, niin voit zoomata sisään; viivalla varustettua vihreää pistettä, niin voit zoomata ulos tai vihreitä nuolia, niin pääset viereisille kartoille.


METAR-TAF: